Vremea acum in Întorsura Buzăului - Romania

Vrei sa afli care e starea vremii acum in Covasna - Romania? Dorim sa iti furnizam starea vremii pentru Covasna - Romania. Starea vremii Covasna - Romania pentru astazi.

Vremea acum in Întorsura Buzăului

Temperatura: 11.7 °C

Este: Thundery outbreaks in nearby
Se simte ca: 11.7 °C
Innorat: 100 %
Precipitatii: 100 %
Presiune atmosferica: 1015 hPa
Umiditate: 93%
Vizibilitate: 9 km
Vantul bate din NE cu 3.6 km/h

Evolutia vremii in Întorsura Buzăului pe ore

Ora: 09:00
Ploi usoare
Temperatura: 13.4°C
Sansa de precipitatii: 100%
Ora Descriere Temp Se simte Precipitatii Umiditate Vant
00:00Thundery outbreaks in nearby9.3°9.1°80%89%SE 4.7 KM/H
01:00Burniță ușoară9.2°9.2°100%89%SE 4 KM/H
02:00Patchy rain nearby9.3°9.5°100%90%SE 3.6 KM/H
03:00Patchy rain nearby10.1°10.4°100%90%SE 3.6 KM/H
04:00Patchy rain nearby10.8°10.8°100%91%E 2.5 KM/H
05:00Thundery outbreaks in nearby10.9°10.9°100%91%NE 2.2 KM/H
06:00Patchy rain nearby10.2°10.6°87%93%NNE 3.2 KM/H
07:00Thundery outbreaks in nearby11.7°11.7°84%93%NE 3.6 KM/H
08:00Ploi usoare12.9°13.5°100%91%NE 3.6 KM/H
09:00Ploi usoare13.4°13.7°100%89%NE 4.7 KM/H
10:00Ploaie ușoară13.2°13°100%91%NE 6.5 KM/H
11:00Ploi usoare12.6°12.3°100%94%NE 6.5 KM/H
12:00Ploi usoare12.9°12.9°100%92%NE 5.8 KM/H
13:00Ploi usoare14.2°14.5°100%84%ENE 5.4 KM/H
14:00Ploi usoare12.7°12.7°100%93%NE 5.4 KM/H
15:00Ploi usoare12.8°13.2°100%91%ENE 4 KM/H
16:00Ploi usoare13.4°13.8°100%87%NNE 4.3 KM/H
17:00Ploi usoare13°13.4°100%90%NNE 4.3 KM/H
18:00Ploi usoare12°12°100%94%NNE 2.9 KM/H
19:00Ploi usoare11.3°11.3°100%95%N 1.8 KM/H
20:00Ploi usoare11.1°11.1°100%96%NW 2.5 KM/H
21:00Ploi usoare10.8°11.1°100%97%NW 3.6 KM/H
22:00Burniță ușoară10.8°10.9°100%98%WNW 4.3 KM/H
23:00Burniță ușoară10.4°10.5°100%99%WNW 4 KM/H




tutorials